Time;durP1;ratioP1;P1;durP2;ratioP2;P2;SDS_P1;SDS_P2;PMS_P1;PMS_P2;Temp;Humidity;BMP_temperature;BMP_pressure;BME280_temperature;BME280_humidity;BME280_pressure;Samples;Min_cycle;Max_cycle;Signal;HPM_P1;HPM_P2
2021/06/29 00:01:50;;;;;;;21.70;16.02;;;;;;;16.81;86.34;101379.94;4974550;28;20038;-93
2021/06/29 00:04:17;;;;;;;24.38;15.98;;;;;;;16.86;86.12;101373.38;5023076;28;20084;-93
2021/06/29 00:06:42;;;;;;;24.23;17.00;;;;;;;16.86;85.91;101376.06;4989839;28;20041;-92
2021/06/29 00:09:08;;;;;;;27.88;16.75;;;;;;;16.88;85.83;101374.16;5024677;28;20038;-92
2021/06/29 00:11:34;;;;;;;26.33;16.55;;;;;;;16.85;85.96;101377.88;5007539;28;20026;-92
2021/06/29 00:13:59;;;;;;;26.45;17.80;;;;;;;16.78;86.47;101372.13;5010145;28;20029;-90
2021/06/29 00:16:25;;;;;;;26.80;17.10;;;;;;;16.76;86.49;101374.03;5049849;28;20038;-91
2021/06/29 00:18:51;;;;;;;27.90;17.17;;;;;;;16.70;86.55;101371.81;5017758;28;20071;-90
2021/06/29 00:21:17;;;;;;;29.83;18.35;;;;;;;16.64;87.21;101358.91;5017822;28;20500;-90
2021/06/29 00:23:42;;;;;;;26.55;18.25;;;;;;;16.59;87.34;101353.03;5019911;28;20026;-91
2021/06/29 00:26:11;;;;;;;26.95;18.38;;;;;;;16.53;87.38;101341.84;5020226;28;20085;-90
2021/06/29 00:28:38;;;;;;;24.25;17.67;;;;;;;16.47;87.63;101347.59;5019116;28;20030;-90
2021/06/29 00:31:05;;;;;;;30.00;18.70;;;;;;;16.43;87.71;101349.63;5037303;28;20048;-90
2021/06/29 00:33:31;;;;;;;25.42;18.52;;;;;;;16.39;87.89;101349.94;5021123;23;20054;-93
2021/06/29 00:35:58;;;;;;;32.60;20.30;;;;;;;16.35;87.86;101346.63;5006177;28;20041;-95
2021/06/29 00:38:24;;;;;;;33.08;21.08;;;;;;;16.35;87.84;101343.97;5004988;28;20041;-94
2021/06/29 00:40:50;;;;;;;30.65;20.73;;;;;;;16.38;87.50;101350.91;5021397;28;20040;-92
2021/06/29 00:43:17;;;;;;;31.33;20.38;;;;;;;16.35;87.53;101343.97;5022204;28;20030;-93
2021/06/29 00:45:43;;;;;;;32.13;19.63;;;;;;;16.35;87.18;101348.47;5022486;28;20034;-93
2021/06/29 00:48:09;;;;;;;27.73;19.50;;;;;;;16.32;87.07;101357.50;5021269;28;20037;-92
2021/06/29 00:50:35;;;;;;;34.65;20.73;;;;;;;16.30;87.13;101352.28;5021940;28;20052;-92
2021/06/29 00:53:08;;;;;;;32.90;19.75;;;;;;;16.32;86.85;101357.50;5029086;28;20026;-92
2021/06/29 00:55:38;;;;;;;30.95;19.17;;;;;;;16.30;86.77;101357.63;5035473;28;20077;-94
2021/06/29 00:58:09;;;;;;;30.23;19.83;;;;;;;16.28;87.02;101356.03;5025706;28;20037;-94
2021/06/29 01:00:35;;;;;;;31.45;19.17;;;;;;;16.28;86.69;101348.03;5023513;28;20060;-92
2021/06/29 01:03:02;;;;;;;28.80;20.35;;;;;;;16.25;86.80;101343.75;5008199;28;20018;-96
2021/06/29 01:05:27;;;;;;;32.80;18.95;;;;;;;16.27;86.79;101341.81;4992015;28;20033;-92
2021/06/29 01:07:59;;;;;;;27.65;18.70;;;;;;;16.26;86.75;101336.59;5023100;28;20033;-94
2021/06/29 01:10:26;;;;;;;33.13;19.52;;;;;;;16.26;86.83;101342.78;5023041;28;20018;-94
2021/06/29 01:12:52;;;;;;;26.48;18.60;;;;;;;16.24;86.98;101333.19;5022779;28;20028;-95
2021/06/29 01:15:24;;;;;;;29.23;19.80;;;;;;;16.22;87.07;101335.97;5022821;28;20089;-94
2021/06/29 01:17:54;;;;;;;33.22;20.33;;;;;;;16.21;87.18;101333.41;5005808;28;20025;-94
2021/06/29 01:20:43;;;;;;;30.50;18.25;;;;;;;16.21;87.04;101334.25;5031930;28;20030;-93
2021/06/29 01:23:24;;;;;;;31.55;19.20;;;;;;;16.18;86.97;101324.66;5026387;28;20045;-92
2021/06/29 01:26:03;;;;;;;29.95;18.80;;;;;;;16.19;87.06;101321.00;5022714;28;20038;-92
2021/06/29 01:31:35;;;;;;;27.98;18.65;;;;;;;16.15;87.12;101303.53;4969220;28;20046;-93
2021/06/29 01:34:01;;;;;;;33.08;18.90;;;;;;;16.16;87.20;101312.38;4971902;28;20047;-94
2021/06/29 01:36:35;;;;;;;25.70;17.48;;;;;;;16.16;87.15;101301.72;4987634;28;20050;-93
2021/06/29 01:39:13;;;;;;;28.33;16.73;;;;;;;16.13;87.09;101302.75;4985821;28;20174;-93
2021/06/29 01:41:38;;;;;;;30.33;16.85;;;;;;;16.13;87.06;101299.25;4984458;28;20039;-91
2021/06/29 01:46:33;;;;;;;25.02;15.15;;;;;;;16.12;86.70;101306.41;4977268;28;20039;-92
2021/06/29 01:48:58;;;;;;;26.70;14.95;;;;;;;16.10;86.82;101302.97;4992890;28;20525;-92
2021/06/29 01:51:24;;;;;;;28.05;14.80;;;;;;;16.12;86.91;101308.19;4960395;28;20019;-92
2021/06/29 01:53:50;;;;;;;28.50;14.15;;;;;;;16.11;86.82;101303.84;4953210;28;20038;-91
2021/06/29 01:56:16;;;;;;;26.80;14.32;;;;;;;16.12;86.62;101298.41;4968074;28;20035;-92
2021/06/29 01:58:43;;;;;;;21.20;12.63;;;;;;;16.12;86.59;101297.53;4984505;28;20031;-91
2021/06/29 02:01:08;;;;;;;22.95;13.43;;;;;;;16.12;86.59;101295.72;4969761;28;20118;-91
2021/06/29 02:03:34;;;;;;;23.08;12.90;;;;;;;16.15;86.57;101305.31;4948690;29;20046;-93
2021/06/29 02:06:00;;;;;;;25.00;13.82;;;;;;;16.15;86.67;101305.31;4964095;29;20159;-92
2021/06/29 02:08:27;;;;;;;25.67;13.52;;;;;;;16.18;86.54;101299.78;4987292;28;20037;-92
2021/06/29 02:10:52;;;;;;;26.95;13.40;;;;;;;16.18;86.55;101297.09;4972210;28;20022;-92
2021/06/29 02:13:18;;;;;;;24.40;13.95;;;;;;;16.21;86.36;101293.38;4972913;28;20504;-94
2021/06/29 02:15:46;;;;;;;27.23;13.82;;;;;;;16.19;86.37;101283.66;4992421;28;20054;-93
2021/06/29 02:18:13;;;;;;;24.33;12.93;;;;;;;16.21;86.37;101288.88;5027542;28;20037;-93
2021/06/29 02:20:46;;;;;;;24.08;13.93;;;;;;;16.22;nan;101285.28;4991528;28;20035;-95
2021/06/29 02:23:12;;;;;;;21.45;12.68;;;;;;;16.24;86.22;101294.00;4989127;28;20066;-95
2021/06/29 02:25:38;;;;;;;25.17;12.75;;;;;;;16.25;86.13;101286.88;4970639;28;20113;-94
2021/06/29 02:28:05;;;;;;;26.42;13.07;;;;;;;16.25;86.18;101286.88;4987076;28;20477;-94
2021/06/29 02:30:31;;;;;;;28.52;12.80;;;;;;;16.25;86.33;101285.06;4987188;28;20050;-94
2021/06/29 02:32:56;;;;;;;21.48;12.50;;;;;;;16.25;86.17;101290.41;5004820;28;20054;-94
2021/06/29 02:35:25;;;;;;;19.63;13.60;;;;;;;16.23;86.40;101281.63;4972645;28;20567;-92
2021/06/29 02:37:51;;;;;;;26.20;12.40;;;;;;;16.24;86.30;101285.16;5005809;28;20038;-92
2021/06/29 02:40:17;;;;;;;24.98;12.65;;;;;;;16.22;86.33;101282.59;4990589;28;20023;-91
2021/06/29 02:42:43;;;;;;;22.30;12.63;;;;;;;16.26;86.29;101284.09;4974444;28;20031;-92
2021/06/29 02:45:17;;;;;;;20.48;12.05;;;;;;;16.24;86.31;101274.50;4988377;28;20038;-94
2021/06/29 02:47:42;;;;;;;25.55;12.48;;;;;;;16.24;86.49;101282.50;4986918;28;20034;-94
2021/06/29 02:50:09;;;;;;;22.33;12.38;;;;;;;16.23;86.42;101275.44;4970106;28;20077;-95
2021/06/29 02:52:35;;;;;;;22.17;11.65;;;;;;;16.21;86.49;101267.53;4970227;28;20473;-94
2021/06/29 02:55:06;;;;;;;24.17;10.82;;;;;;;16.22;86.32;101273.75;4969943;28;20165;-95
2021/06/29 02:57:32;;;;;;;26.08;12.07;;;;;;;16.19;86.69;101278.31;4985479;28;20049;-92
2021/06/29 02:59:57;;;;;;;22.65;11.07;;;;;;;16.16;86.70;101270.53;5001710;28;20038;-93
2021/06/29 03:02:23;;;;;;;28.08;12.20;;;;;;;16.16;86.93;101267.88;4986165;28;20029;-93
2021/06/29 03:04:49;;;;;;;30.80;11.60;;;;;;;16.14;87.18;101261.81;4968994;28;20468;-92
2021/06/29 03:07:14;;;;;;;25.17;11.90;;;;;;;16.12;87.32;101238.84;4969566;28;20030;-93
2021/06/29 03:09:40;;;;;;;24.77;11.77;;;;;;;16.13;87.37;101241.41;5002056;28;20026;-94
2021/06/29 03:12:08;;;;;;;21.00;10.85;;;;;;;16.11;87.41;101255.81;4985737;28;20026;-93
2021/06/29 03:14:38;;;;;;;25.60;11.32;;;;;;;16.10;87.52;101259.47;4970059;28;20054;-93
2021/06/29 03:17:04;;;;;;;23.50;11.38;;;;;;;16.08;87.58;101258.69;4985448;28;20034;-94
2021/06/29 03:19:31;;;;;;;24.98;11.73;;;;;;;16.08;87.72;101256.91;5001466;28;20157;-93
2021/06/29 03:21:57;;;;;;;25.92;11.77;;;;;;;16.09;87.66;101252.41;4986190;28;20023;-93
2021/06/29 03:24:23;;;;;;;28.83;12.13;;;;;;;16.09;87.91;101247.06;5001224;28;20042;-93
2021/06/29 03:26:50;;;;;;;24.27;11.38;;;;;;;16.06;87.80;101254.34;5001142;28;20100;-95
2021/06/29 03:29:16;;;;;;;26.08;11.82;;;;;;;16.08;87.82;101256.91;4985139;28;20038;-92
2021/06/29 03:31:41;;;;;;;23.60;10.73;;;;;;;16.05;87.88;101251.78;5001025;28;20041;-92
2021/06/29 03:34:07;;;;;;;22.38;11.18;;;;;;;16.04;87.83;101242.91;5010225;28;20046;-93
2021/06/29 03:36:33;;;;;;;23.17;11.23;;;;;;;16.02;87.76;101239.50;5004446;28;20030;-92
2021/06/29 03:38:58;;;;;;;27.23;11.77;;;;;;;16.01;88.05;101250.25;5036725;28;20042;-93
2021/06/29 03:41:24;;;;;;;24.30;12.02;;;;;;;16.02;88.31;101250.16;5020145;28;20064;-93
2021/06/29 03:43:55;;;;;;;32.13;11.85;;;;;;;16.02;87.96;101258.16;5004381;28;20044;-94
2021/06/29 03:46:22;;;;;;;29.30;11.98;;;;;;;16.02;87.94;101257.31;5003796;28;20029;-93
2021/06/29 03:48:48;;;;;;;26.75;10.77;;;;;;;16.01;87.95;101253.78;5002682;28;20193;-95
2021/06/29 03:51:14;;;;;;;27.83;11.77;;;;;;;16.04;88.05;101263.38;5007288;28;20060;-92
2021/06/29 03:53:40;;;;;;;25.77;10.73;;;;;;;16.03;88.01;101267.88;5020678;28;20018;-91
2021/06/29 03:56:05;;;;;;;27.88;11.05;;;;;;;16.04;88.19;101258.91;5022542;28;20030;-95
2021/06/29 03:58:31;;;;;;;23.92;9.50;;;;;;;16.05;87.99;101260.63;4988039;28;20030;-92
2021/06/29 04:00:56;;;;;;;25.98;10.55;;;;;;;16.09;87.94;101260.41;5004469;28;20034;-93
2021/06/29 04:03:23;;;;;;;22.63;10.27;;;;;;;16.11;87.58;101258.50;4989971;28;20038;-92
2021/06/29 04:05:49;;;;;;;24.10;10.23;;;;;;;16.14;87.43;101253.81;5005211;28;20022;-91
2021/06/29 04:08:15;;;;;;;20.40;9.95;;;;;;;16.14;87.36;101234.25;4984900;28;20115;-93
2021/06/29 04:10:40;;;;;;;25.63;10.23;;;;;;;16.17;87.17;101234.91;5000854;28;20035;-94
2021/06/29 04:13:06;;;;;;;30.00;10.65;;;;;;;16.20;87.27;101236.50;4984754;28;20034;-94
2021/06/29 04:15:33;;;;;;;26.83;10.68;;;;;;;16.19;87.05;101245.47;4984167;28;20042;-92
2021/06/29 04:17:58;;;;;;;25.15;10.07;;;;;;;16.24;86.97;101247.81;4984151;28;20022;-91
2021/06/29 04:20:24;;;;;;;22.42;10.23;;;;;;;16.25;86.76;101246.84;4968142;28;20556;-93
2021/06/29 04:22:49;;;;;;;21.95;9.45;;;;;;;16.21;86.70;101253.38;5016527;28;20030;-92
2021/06/29 04:25:15;;;;;;;19.17;9.50;;;;;;;16.22;86.57;101253.25;4983155;28;20547;-92
2021/06/29 04:27:40;;;;;;;20.25;9.68;;;;;;;16.22;86.74;101271.06;5000138;28;20035;-91
2021/06/29 04:30:07;;;;;;;23.00;9.57;;;;;;;16.31;86.38;101251.75;5001476;28;20470;-93
2021/06/29 04:32:33;;;;;;;23.10;9.65;;;;;;;16.32;85.91;101245.44;5011049;23;20038;-91
2021/06/29 04:34:58;;;;;;;20.92;9.23;;;;;;;16.31;85.92;101244.59;5004071;28;20065;-91
2021/06/29 04:37:25;;;;;;;18.05;9.68;;;;;;;16.34;85.85;101237.31;4988786;28;20033;-93
2021/06/29 04:39:50;;;;;;;19.48;9.18;;;;;;;16.34;85.73;101240.84;5004138;28;20021;-93
2021/06/29 04:42:16;;;;;;;19.58;9.02;;;;;;;16.34;85.23;101250.66;5003132;28;20057;-93
2021/06/29 04:44:42;;;;;;;18.00;9.70;;;;;;;16.42;85.58;101254.50;4987155;28;20034;-93
2021/06/29 04:47:08;;;;;;;15.25;9.38;;;;;;;16.37;85.26;101256.66;5002847;28;20042;-92
2021/06/29 04:49:34;;;;;;;18.30;9.10;;;;;;;16.41;85.17;101263.47;4986611;28;20030;-92
2021/06/29 04:51:59;;;;;;;22.40;8.82;;;;;;;16.42;85.04;101251.84;4986624;28;20057;-93
2021/06/29 04:54:25;;;;;;;18.33;8.27;;;;;;;16.46;84.92;101252.44;5020558;28;20096;-94
2021/06/29 04:56:50;;;;;;;19.20;8.80;;;;;;;16.45;84.60;101253.44;4988124;28;20388;-92
2021/06/29 04:59:16;;;;;;;15.38;8.45;;;;;;;16.38;84.77;101246.84;5006453;28;20018;-91
2021/06/29 05:01:42;;;;;;;20.75;8.98;;;;;;;16.35;85.18;101241.72;4958491;28;20025;-92
2021/06/29 05:04:07;;;;;;;22.58;9.23;;;;;;;16.35;85.34;101239.03;4988568;28;20064;-92
2021/06/29 05:06:33;;;;;;;19.58;9.68;;;;;;;16.40;85.15;101240.41;5004060;28;20384;-93
2021/06/29 05:08:58;;;;;;;20.42;9.40;;;;;;;16.43;84.88;101239.31;4986553;28;20026;-93
2021/06/29 05:11:24;;;;;;;18.13;9.38;;;;;;;16.44;84.93;101228.53;5000157;28;20105;-93
2021/06/29 05:13:49;;;;;;;18.77;9.13;;;;;;;16.42;85.06;101230.50;5001847;28;20129;-93
2021/06/29 05:16:15;;;;;;;21.90;9.48;;;;;;;16.50;84.89;101226.41;5018266;28;20025;-93
2021/06/29 05:18:40;;;;;;;17.55;8.98;;;;;;;16.46;84.93;101235.59;5002499;28;20029;-93
2021/06/29 05:21:06;;;;;;;19.30;9.25;;;;;;;16.48;84.87;101239.84;5003021;28;20420;-92
2021/06/29 05:23:31;;;;;;;18.73;8.77;;;;;;;16.44;84.84;101244.56;4970090;28;20032;-90
2021/06/29 05:25:57;;;;;;;21.15;9.00;;;;;;;16.50;84.70;101248.63;5002326;28;20037;-92
2021/06/29 05:28:23;;;;;;;19.10;8.43;;;;;;;16.54;84.80;101247.44;4989170;28;20026;-91
2021/06/29 05:30:50;;;;;;;23.58;9.43;;;;;;;16.53;84.82;101252.88;4989801;28;20096;-91
2021/06/29 05:33:54;;;;;;;20.65;9.32;;;;;;;16.56;84.61;101248.19;5355710;22;20040;31
2021/06/29 05:36:21;;;;;;;16.88;9.25;;;;;;;16.62;84.52;101233.53;4938042;29;20071;-90
2021/06/29 05:38:47;;;;;;;17.08;8.38;;;;;;;16.67;84.46;101247.41;4923738;29;20411;-92
2021/06/29 05:41:13;;;;;;;24.27;8.88;;;;;;;16.68;83.88;101237.56;4905675;29;20020;-90
2021/06/29 05:43:38;;;;;;;20.95;8.85;;;;;;;16.69;84.33;101242.78;4920346;29;20431;-93
2021/06/29 05:46:04;;;;;;;26.00;9.05;;;;;;;16.72;84.45;101239.06;4919422;29;20070;-83
2021/06/29 05:48:32;;;;;;;21.63;9.73;;;;;;;16.72;84.15;101236.38;4936181;29;20031;-82
2021/06/29 05:50:58;;;;;;;20.65;8.90;;;;;;;16.74;84.06;101245.09;4935752;29;20039;-81
2021/06/29 05:53:23;;;;;;;24.00;9.35;;;;;;;16.91;83.98;101246.53;4937110;29;20027;-83
2021/06/29 05:55:49;;;;;;;22.23;8.38;;;;;;;16.87;83.69;101242.41;4935603;29;20042;-84
2021/06/29 05:58:15;;;;;;;22.95;8.98;;;;;;;16.91;83.90;101245.72;4935363;29;20032;-80
2021/06/29 06:00:40;;;;;;;22.63;7.82;;;;;;;16.99;83.78;101247.81;4935390;29;20474;-83
2021/06/29 06:03:06;;;;;;;21.77;8.45;;;;;;;16.96;84.41;101248.88;4935474;29;20024;-79
2021/06/29 06:05:31;;;;;;;21.95;9.45;;;;;;;16.91;84.65;101253.72;4935274;29;20040;-82
2021/06/29 06:07:57;;;;;;;18.40;9.02;;;;;;;16.91;84.45;101257.22;4934810;29;20123;-80
2021/06/29 06:10:22;;;;;;;23.88;9.48;;;;;;;16.87;84.30;101255.75;4932285;29;20464;-83
2021/06/29 06:12:47;;;;;;;20.95;9.13;;;;;;;16.90;84.56;101258.19;4932162;29;20023;-84
2021/06/29 06:15:13;;;;;;;23.58;9.00;;;;;;;16.91;84.61;101257.22;4937720;29;20031;-83
2021/06/29 06:17:39;;;;;;;21.45;9.38;;;;;;;17.01;84.52;101260.09;4952465;29;20027;-83
2021/06/29 06:20:08;;;;;;;20.20;8.75;;;;;;;16.89;84.74;101261.84;4937333;29;20035;-83
2021/06/29 06:22:33;;;;;;;21.63;9.48;;;;;;;16.84;85.10;101265.81;4937494;29;20020;-77
2021/06/29 06:24:59;;;;;;;22.17;9.55;;;;;;;16.79;86.00;101260.78;4937848;29;20032;-84
2021/06/29 06:27:25;;;;;;;20.85;10.27;;;;;;;16.78;85.72;101261.78;4937436;29;20035;-79
2021/06/29 06:29:50;;;;;;;23.10;9.90;;;;;;;16.80;85.86;101267.88;4937448;29;20342;-82
2021/06/29 06:32:15;;;;;;;23.25;9.70;;;;;;;16.78;85.48;101265.31;4937386;29;20032;-83
2021/06/29 06:34:41;;;;;;;21.17;10.02;;;;;;;16.75;85.83;101272.69;4937290;29;20043;-79
2021/06/29 06:37:06;;;;;;;24.58;10.73;;;;;;;16.79;86.01;101280.34;4937450;29;20039;-81
2021/06/29 06:39:32;;;;;;;28.40;11.38;;;;;;;16.78;85.58;101283.13;4937246;29;20363;-83
2021/06/29 06:41:57;;;;;;;29.45;10.68;;;;;;;16.82;86.23;101289.94;4951853;29;20455;-82
2021/06/29 06:44:24;;;;;;;25.63;11.85;;;;;;;16.79;85.88;101285.69;4936985;29;20032;-80
2021/06/29 06:46:49;;;;;;;22.98;11.90;;;;;;;16.77;86.12;101290.28;4951704;29;20375;-82
2021/06/29 06:49:15;;;;;;;25.65;12.15;;;;;;;16.72;86.00;101286.25;4937390;29;20030;-82
2021/06/29 06:51:40;;;;;;;31.38;12.25;;;;;;;16.68;86.31;101290.94;4936953;29;20023;-84
2021/06/29 06:54:06;;;;;;;28.42;12.63;;;;;;;16.61;86.62;101285.22;4937284;29;20039;-83
2021/06/29 06:56:31;;;;;;;35.85;13.20;;;;;;;16.59;86.78;101292.47;4936936;29;20024;-82
2021/06/29 06:58:57;;;;;;;34.20;13.48;;;;;;;16.60;87.14;101290.66;4936585;29;20386;-81
2021/06/29 07:01:22;;;;;;;32.97;14.70;;;;;;;16.61;87.51;101290.56;4936488;29;20046;-82
2021/06/29 07:03:47;;;;;;;33.75;14.02;;;;;;;16.60;87.03;101293.34;4936852;29;20027;-79
2021/06/29 07:06:14;;;;;;;32.47;12.60;;;;;;;16.62;87.15;101291.38;4936679;29;20043;-80
2021/06/29 07:08:39;;;;;;;31.80;12.82;;;;;;;16.59;87.14;101295.16;4936903;29;20031;-81
2021/06/29 07:11:06;;;;;;;22.02;11.60;;;;;;;16.63;86.93;101293.13;4936851;29;20027;-77
2021/06/29 07:13:32;;;;;;;33.58;14.25;;;;;;;16.58;87.00;101301.47;4936754;29;20042;-81
2021/06/29 07:15:57;;;;;;;37.45;14.80;;;;;;;16.58;87.38;101303.25;4951663;29;20023;-82
2021/06/29 07:18:23;;;;;;;37.40;16.02;;;;;;;16.54;87.54;101299.94;4937814;29;20032;-81
2021/06/29 07:20:48;;;;;;;39.75;16.50;;;;;;;16.54;87.53;101297.28;4968580;28;20118;-79
2021/06/29 07:23:14;;;;;;;38.90;15.63;;;;;;;16.51;87.69;101294.84;4952720;28;20028;-80
2021/06/29 07:25:40;;;;;;;30.98;15.75;;;;;;;16.44;87.76;101299.78;4920261;29;20126;-81
2021/06/29 07:28:06;;;;;;;32.42;15.68;;;;;;;16.44;87.82;101303.28;4936461;29;20031;-82
2021/06/29 07:30:32;;;;;;;38.83;15.35;;;;;;;16.46;88.00;101307.66;4937414;29;20032;-82
2021/06/29 07:32:58;;;;;;;35.03;16.40;;;;;;;16.40;88.78;101312.47;4936211;29;20028;-81
2021/06/29 07:35:24;;;;;;;33.17;16.00;;;;;;;16.34;89.04;101312.03;4945923;29;20510;-80
2021/06/29 07:37:49;;;;;;;38.13;17.48;;;;;;;16.34;89.41;101298.69;4956412;29;20055;-80
2021/06/29 07:40:15;;;;;;;33.83;15.52;;;;;;;16.35;89.03;101308.44;4956769;29;20029;-79
2021/06/29 07:42:40;;;;;;;24.70;14.02;;;;;;;16.30;88.99;101311.44;4956562;29;20027;-78
2021/06/29 07:45:06;;;;;;;26.70;14.55;;;;;;;16.29;89.56;101309.69;4956036;29;20027;-78
2021/06/29 07:47:32;;;;;;;33.80;15.70;;;;;;;16.26;89.64;101307.25;4955355;29;20554;-77
2021/06/29 07:49:57;;;;;;;33.95;17.25;;;;;;;16.22;89.55;101311.97;4939179;29;20023;-77
2021/06/29 07:52:22;;;;;;;32.72;16.10;;;;;;;16.18;89.79;101313.97;4956369;29;20023;-78
2021/06/29 07:54:48;;;;;;;38.67;18.20;;;;;;;16.15;90.10;101308.84;4956143;29;20031;-81
2021/06/29 07:57:14;;;;;;;30.88;16.23;;;;;;;16.16;90.10;101305.22;4956017;29;20038;-75
2021/06/29 07:59:39;;;;;;;36.10;17.65;;;;;;;16.20;90.21;101303.19;4956187;29;20078;-78
2021/06/29 08:02:05;;;;;;;35.75;16.55;;;;;;;16.20;90.22;101300.53;4955941;29;20024;-78
2021/06/29 08:04:30;;;;;;;31.30;16.08;;;;;;;16.16;89.73;101289.22;4955713;29;20047;-80
2021/06/29 08:06:57;;;;;;;24.40;14.52;;;;;;;16.22;89.70;101284.41;4956952;28;20035;-80
2021/06/29 08:09:22;;;;;;;29.58;15.82;;;;;;;16.35;89.17;101277.25;4952576;28;20033;-78
2021/06/29 08:11:48;;;;;;;28.48;14.75;;;;;;;16.40;88.74;101292.94;4958491;28;20024;-78
2021/06/29 08:14:14;;;;;;;23.33;13.63;;;;;;;16.49;88.69;101288.78;4962954;28;20034;-78
2021/06/29 08:16:44;;;;;;;19.50;12.75;;;;;;;16.63;88.44;101299.28;4978869;28;20042;-78
2021/06/29 08:19:09;;;;;;;21.33;13.45;;;;;;;16.65;88.56;101299.19;4967296;28;20134;-79
2021/06/29 08:21:37;;;;;;;28.15;15.85;;;;;;;16.71;88.53;101292.56;4963665;28;20049;-80
2021/06/29 08:24:04;;;;;;;25.08;14.07;;;;;;;16.86;87.82;101290.59;4960793;28;20038;-81
2021/06/29 08:26:33;;;;;;;24.13;14.18;;;;;;;16.80;87.42;101302.59;4962966;29;20019;-80
2021/06/29 08:28:59;;;;;;;29.02;14.82;;;;;;;16.72;87.97;101299.59;4961590;29;20547;-78
2021/06/29 08:31:24;;;;;;;27.35;15.90;;;;;;;16.63;88.32;101301.13;4977253;28;20082;-81
2021/06/29 08:33:53;;;;;;;27.95;15.73;;;;;;;16.75;88.71;101302.06;5010121;23;20122;-78
2021/06/29 08:36:20;;;;;;;31.50;16.10;;;;;;;16.64;88.89;101302.81;5007248;28;20144;-80
2021/06/29 08:38:45;;;;;;;23.67;13.80;;;;;;;16.60;88.63;101296.00;5009934;28;20382;-78
2021/06/29 08:41:12;;;;;;;27.40;15.50;;;;;;;16.66;88.66;101300.91;5012972;28;20068;-80
2021/06/29 08:43:40;;;;;;;30.38;15.32;;;;;;;16.66;88.82;101300.91;5003479;28;20050;-79
2021/06/29 08:46:05;;;;;;;34.70;15.82;;;;;;;16.65;88.96;101307.19;4994261;28;20033;-78
2021/06/29 08:48:31;;;;;;;28.23;15.30;;;;;;;16.72;88.95;101300.47;4990800;28;20074;-78
2021/06/29 08:50:58;;;;;;;26.08;14.60;;;;;;;16.56;88.09;101296.22;4993800;28;20033;-79
2021/06/29 08:53:23;;;;;;;21.83;14.45;;;;;;;16.66;87.71;101274.22;4960905;28;20066;-78
2021/06/29 08:55:49;;;;;;;21.73;13.13;;;;;;;16.69;87.70;101279.31;4959230;28;20029;-80
2021/06/29 08:58:19;;;;;;;21.67;13.80;;;;;;;16.90;87.28;101284.06;4981274;28;20069;-79
2021/06/29 09:00:44;;;;;;;21.90;13.65;;;;;;;16.90;86.76;101281.38;5000002;28;20053;-80
2021/06/29 09:03:10;;;;;;;20.23;13.25;;;;;;;16.97;86.08;101287.13;4993408;28;20478;-78
2021/06/29 09:05:35;;;;;;;24.75;13.65;;;;;;;16.84;86.11;101284.50;4999412;28;20026;-81
2021/06/29 09:08:06;;;;;;;23.83;13.40;;;;;;;16.89;86.30;101279.69;4990307;28;20041;-79
2021/06/29 09:10:35;;;;;;;23.00;13.38;;;;;;;16.88;85.61;101276.16;4991468;28;20018;-82
2021/06/29 09:13:01;;;;;;;21.58;14.32;;;;;;;17.00;85.96;101290.44;5015038;28;20026;-83
2021/06/29 09:15:48;;;;;;;22.63;13.52;;;;;;;16.91;85.91;101288.44;4989775;28;20025;-83
2021/06/29 09:18:24;;;;;;;23.63;13.68;;;;;;;16.92;86.15;101292.81;4947747;28;20040;-82
2021/06/29 09:20:51;;;;;;;20.55;11.93;;;;;;;16.94;84.92;101298.91;4942030;29;20036;-83
2021/06/29 09:23:37;;;;;;;21.90;12.10;;;;;;;16.85;85.35;101292.41;4945507;29;20032;-82
2021/06/29 09:26:07;;;;;;;23.90;12.13;;;;;;;16.87;85.18;101294.97;4949132;29;20086;-82
2021/06/29 09:28:45;;;;;;;24.10;13.30;;;;;;;16.83;85.50;101301.50;4916035;29;20035;-82
2021/06/29 09:31:12;;;;;;;19.38;12.88;;;;;;;16.79;85.79;101300.84;4905800;29;20042;-82
2021/06/29 09:33:39;;;;;;;23.98;13.30;;;;;;;16.84;85.97;101308.53;4931406;29;20121;-82
2021/06/29 09:36:12;;;;;;;20.95;13.27;;;;;;;16.79;85.60;101314.22;4914191;29;20060;-82
2021/06/29 09:38:39;;;;;;;18.45;11.02;;;;;;;16.71;85.56;101317.44;4913310;29;20024;-85
2021/06/29 09:41:09;;;;;;;20.05;12.02;;;;;;;16.63;85.17;101319.81;4925908;29;20039;-83
2021/06/29 09:43:39;;;;;;;20.00;12.27;;;;;;;16.57;85.61;101315.75;4921403;29;20490;-82
2021/06/29 09:46:08;;;;;;;18.88;12.70;;;;;;;16.62;85.95;101321.63;4907747;29;20044;-82
2021/06/29 09:48:34;;;;;;;20.38;11.20;;;;;;;16.47;85.86;101326.25;4926004;28;20048;-82
2021/06/29 09:51:06;;;;;;;19.30;12.02;;;;;;;16.43;86.44;101320.25;4926057;29;20031;-83
2021/06/29 09:53:44;;;;;;;20.55;12.15;;;;;;;16.40;86.69;101319.63;4932603;29;20063;-91
2021/06/29 09:56:15;;;;;;;18.27;11.13;;;;;;;16.29;86.90;101323.03;4954722;28;20043;-91
2021/06/29 09:58:42;;;;;;;20.23;11.50;;;;;;;16.37;86.73;101322.50;4960165;28;20026;-90
2021/06/29 10:01:08;;;;;;;16.13;10.88;;;;;;;16.40;86.62;101322.28;4949727;28;20031;-92
2021/06/29 10:03:37;;;;;;;18.42;10.48;;;;;;;16.58;86.57;101308.59;4948908;28;20497;-95
2021/06/29 10:06:14;;;;;;;16.17;10.35;;;;;;;16.60;85.48;101312.84;4949724;28;20082;-93
2021/06/29 10:08:44;;;;;;;15.77;10.38;;;;;;;16.66;85.76;101317.75;4964942;28;20363;-91
2021/06/29 10:11:27;;;;;;;18.08;10.25;;;;;;;16.71;85.63;101314.75;4949946;28;20370;-91
2021/06/29 10:13:59;;;;;;;16.25;10.43;;;;;;;16.77;85.42;101326.84;4950114;28;20066;-92
2021/06/29 10:16:29;;;;;;;15.10;10.35;;;;;;;16.76;85.38;101323.31;4936416;28;20057;-93
2021/06/29 10:21:24;;;;;;;16.55;9.80;;;;;;;16.75;85.13;101326.94;4950987;28;20038;-93
2021/06/29 10:23:54;;;;;;;13.57;9.30;;;;;;;16.69;84.95;101324.72;4932202;28;20023;-93
2021/06/29 10:26:20;;;;;;;15.45;9.93;;;;;;;16.61;86.15;101327.06;4949479;28;20037;-91
2021/06/29 10:28:46;;;;;;;16.02;9.63;;;;;;;16.72;86.12;101313.81;4950421;28;20027;-91
2021/06/29 10:31:23;;;;;;;13.35;8.77;;;;;;;16.67;85.83;101316.81;4950760;28;20038;-90
2021/06/29 10:33:49;;;;;;;13.38;8.20;;;;;;;16.69;85.19;101303.34;4948948;28;20043;-90
2021/06/29 10:36:18;;;;;;;12.57;7.97;;;;;;;16.81;84.34;101307.81;4950222;28;20062;-91
2021/06/29 10:38:43;;;;;;;8.13;7.10;;;;;;;16.86;84.57;101315.50;4963623;28;20026;-90
2021/06/29 10:41:09;;;;;;;8.38;5.90;;;;;;;17.19;83.31;101316.66;4948730;28;20022;-92
2021/06/29 10:43:36;;;;;;;7.30;5.55;;;;;;;17.19;82.53;101330.03;4947656;28;20027;-91
2021/06/29 10:46:02;;;;;;;6.82;5.30;;;;;;;17.30;81.95;101326.56;4949665;28;20488;-91
2021/06/29 10:48:28;;;;;;;5.57;4.90;;;;;;;17.42;81.67;101330.16;4966432;28;20121;-90
2021/06/29 10:50:55;;;;;;;8.93;5.63;;;;;;;17.47;81.88;101327.16;4949376;28;20097;-91
2021/06/29 10:53:39;;;;;;;8.75;5.88;;;;;;;17.52;81.89;101322.31;4963938;28;20034;-92
2021/06/29 10:56:09;;;;;;;6.53;3.85;;;;;;;17.39;81.57;101322.38;4964280;28;20097;-92
2021/06/29 10:58:42;;;;;;;6.82;4.85;;;;;;;17.38;81.19;101319.81;4946641;28;20363;-90
2021/06/29 11:01:27;;;;;;;5.97;4.30;;;;;;;17.33;81.66;101327.31;4947311;28;20030;-92
2021/06/29 11:03:55;;;;;;;5.18;3.67;;;;;;;17.00;82.26;101321.63;4948152;28;20035;-90
2021/06/29 11:06:44;;;;;;;4.40;3.45;;;;;;;16.85;82.52;101316.44;4938224;28;20033;-91
2021/06/29 11:09:11;;;;;;;4.93;3.70;;;;;;;16.84;83.89;101314.75;4955400;28;20030;-90
2021/06/29 11:11:37;;;;;;;4.47;3.50;;;;;;;16.83;84.46;101315.72;4933672;28;20025;-91
2021/06/29 11:14:08;;;;;;;4.85;3.65;;;;;;;16.76;84.50;101317.09;4952950;28;20023;-89
2021/06/29 11:16:57;;;;;;;6.15;4.05;;;;;;;16.67;84.26;101314.16;4955082;28;20038;-91
2021/06/29 11:20:00;;;;;;;4.57;3.97;;;;;;;16.50;83.87;101320.69;4949701;28;20031;-91
2021/06/29 11:22:57;;;;;;;5.15;4.03;;;;;;;16.56;84.93;101324.72;4967297;28;20031;-92